createdAt,value
2017-12-26T00:00:14.956Z,100.0
2017-12-26T00:01:16.663Z,100.0
2017-12-26T00:02:18.387Z,100.0
2017-12-26T00:03:20.115Z,100.0
2017-12-26T00:04:21.874Z,100.0
2017-12-26T00:05:23.608Z,100.0
2017-12-26T00:06:25.319Z,100.0
2017-12-26T00:07:26.961Z,100.0
2017-12-26T00:08:28.792Z,100.0
2017-12-26T00:09:30.504Z,100.0
2017-12-26T00:10:32.170Z,100.0
2017-12-26T00:11:33.917Z,100.0
2017-12-26T00:12:35.629Z,100.0
2017-12-26T00:13:37.396Z,100.0
2017-12-26T00:14:39.471Z,100.0
2017-12-26T00:15:41.237Z,100.0
2017-12-26T00:16:42.968Z,100.0
2017-12-26T00:17:44.722Z,100.0
2017-12-26T00:18:46.418Z,100.0
2017-12-26T00:19:48.408Z,100.0
2017-12-26T00:20:50.469Z,100.0
2017-12-26T00:21:52.222Z,100.0
2017-12-26T00:22:53.910Z,100.0
2017-12-26T00:23:55.577Z,100.0
2017-12-26T00:24:57.275Z,100.0
2017-12-26T00:25:59.039Z,100.0
2017-12-26T00:27:00.778Z,100.0
2017-12-26T00:28:02.571Z,100.0
2017-12-26T00:29:04.358Z,100.0
2017-12-26T00:30:06.054Z,100.0
2017-12-26T00:31:08.148Z,100.0
2017-12-26T00:32:10.315Z,100.0
2017-12-26T00:33:12.008Z,100.0
2017-12-26T00:34:13.709Z,100.0
2017-12-26T00:35:16.179Z,100.0
2017-12-26T00:36:17.819Z,100.0
2017-12-26T00:37:19.505Z,100.0
2017-12-26T00:38:21.200Z,100.0
2017-12-26T00:39:22.916Z,100.0
2017-12-26T00:40:25.293Z,100.0
2017-12-26T00:41:26.934Z,100.0
2017-12-26T00:42:28.608Z,100.0
2017-12-26T00:43:30.310Z,100.0
2017-12-26T00:44:31.987Z,100.0
2017-12-26T00:45:33.722Z,100.0
2017-12-26T00:46:35.371Z,100.0
2017-12-26T00:47:37.029Z,100.0
2017-12-26T00:48:38.665Z,100.0
2017-12-26T00:49:40.530Z,100.0
2017-12-26T00:50:42.170Z,100.0
2017-12-26T00:51:43.874Z,100.0
2017-12-26T00:52:45.498Z,100.0
2017-12-26T00:53:47.225Z,100.0
2017-12-26T00:54:49.820Z,100.0
2017-12-26T00:55:51.517Z,100.0
2017-12-26T00:56:53.173Z,100.0
2017-12-26T00:57:54.903Z,100.0
2017-12-26T00:58:56.628Z,100.0
2017-12-26T00:59:58.316Z,100.0
2017-12-26T01:01:00.053Z,100.0
2017-12-26T01:02:01.776Z,100.0
2017-12-26T01:03:03.479Z,100.0
2017-12-26T01:04:05.125Z,100.0
2017-12-26T01:05:06.802Z,100.0
2017-12-26T01:06:08.481Z,100.0
2017-12-26T01:07:10.364Z,100.0
2017-12-26T01:08:12.051Z,100.0
2017-12-26T01:09:13.812Z,100.0
2017-12-26T01:10:15.610Z,100.0
2017-12-26T01:11:17.254Z,100.0
2017-12-26T01:12:18.972Z,100.0
2017-12-26T01:13:20.763Z,100.0
2017-12-26T01:14:22.436Z,100.0
2017-12-26T01:15:24.157Z,100.0
2017-12-26T01:16:25.828Z,100.0
2017-12-26T01:17:27.485Z,100.0
2017-12-26T01:18:29.186Z,100.0
2017-12-26T01:19:30.918Z,100.0
2017-12-26T01:20:32.643Z,100.0
2017-12-26T01:21:34.365Z,100.0
2017-12-26T01:22:36.057Z,100.0
2017-12-26T01:23:37.782Z,100.0
2017-12-26T01:24:39.474Z,100.0
2017-12-26T01:25:41.201Z,100.0
2017-12-26T01:26:42.953Z,100.0
2017-12-26T01:27:44.665Z,100.0
2017-12-26T01:28:46.334Z,100.0
2017-12-26T01:29:48.458Z,100.0
2017-12-26T01:30:50.150Z,100.0
2017-12-26T01:31:51.839Z,100.0
2017-12-26T01:32:53.557Z,100.0
2017-12-26T01:33:55.253Z,100.0
2017-12-26T01:34:56.909Z,100.0
2017-12-26T01:35:58.578Z,100.0
2017-12-26T01:37:00.298Z,100.0
2017-12-26T01:38:02.011Z,100.0
2017-12-26T01:39:03.693Z,100.0
2017-12-26T01:40:05.394Z,100.0
2017-12-26T01:41:07.044Z,100.0
2017-12-26T01:42:08.699Z,100.0
2017-12-26T01:43:10.386Z,100.0
2017-12-26T01:44:12.892Z,100.0
2017-12-26T01:45:14.488Z,100.0
2017-12-26T01:46:16.196Z,100.0
2017-12-26T01:47:17.884Z,100.0
2017-12-26T01:48:19.574Z,100.0
2017-12-26T01:49:21.279Z,100.0
2017-12-26T01:50:22.926Z,100.0
2017-12-26T01:51:24.643Z,100.0
2017-12-26T01:52:26.311Z,100.0
2017-12-26T01:53:28.065Z,100.0
2017-12-26T01:54:29.749Z,100.0
2017-12-26T01:55:31.411Z,100.0
2017-12-26T01:56:33.045Z,100.0
2017-12-26T01:57:34.775Z,100.0
2017-12-26T01:58:36.531Z,100.0
2017-12-26T01:59:38.229Z,100.0
2017-12-26T02:00:39.982Z,100.0
2017-12-26T02:01:41.675Z,100.0
2017-12-26T02:02:43.410Z,100.0
2017-12-26T02:03:45.138Z,100.0
2017-12-26T02:04:46.872Z,100.0
2017-12-26T02:05:48.600Z,100.0
2017-12-26T02:06:50.249Z,100.0
2017-12-26T02:07:51.929Z,100.0
2017-12-26T02:08:53.667Z,100.0
2017-12-26T02:09:55.336Z,100.0
2017-12-26T02:10:57.021Z,100.0
2017-12-26T02:11:58.670Z,100.0
2017-12-26T02:13:00.313Z,100.0
2017-12-26T02:14:01.956Z,100.0
2017-12-26T02:15:03.663Z,100.0
2017-12-26T02:16:05.318Z,100.0
2017-12-26T02:17:06.962Z,100.0
2017-12-26T02:18:08.664Z,100.0
2017-12-26T02:19:10.354Z,100.0
2017-12-26T02:20:11.995Z,100.0
2017-12-26T02:21:14.068Z,100.0
2017-12-26T02:22:15.746Z,100.0
2017-12-26T02:23:17.413Z,100.0
2017-12-26T02:24:19.128Z,100.0
2017-12-26T02:25:20.773Z,100.0
2017-12-26T02:26:22.454Z,100.0
2017-12-26T02:27:24.176Z,100.0
2017-12-26T02:28:25.913Z,100.0
2017-12-26T02:29:27.657Z,100.0
2017-12-26T02:30:29.371Z,100.0
2017-12-26T02:31:31.059Z,100.0
2017-12-26T02:32:32.751Z,100.0
2017-12-26T02:33:34.454Z,100.0
2017-12-26T02:34:36.114Z,100.0
2017-12-26T02:35:37.834Z,100.0
2017-12-26T02:36:39.531Z,100.0
2017-12-26T02:37:41.178Z,100.0
2017-12-26T02:38:42.831Z,100.0
2017-12-26T02:39:44.524Z,100.0
2017-12-26T02:40:46.180Z,100.0
2017-12-26T02:41:47.828Z,100.0
2017-12-26T02:42:49.521Z,100.0
2017-12-26T02:43:51.160Z,100.0
2017-12-26T02:44:52.981Z,100.0
2017-12-26T02:45:54.642Z,100.0
2017-12-26T02:46:56.314Z,100.0
2017-12-26T02:47:58.019Z,100.0
2017-12-26T02:48:59.654Z,100.0
2017-12-26T02:50:01.369Z,100.0
2017-12-26T02:51:03.018Z,100.0
2017-12-26T02:52:04.662Z,100.0
2017-12-26T02:53:06.368Z,100.0
2017-12-26T02:54:08.007Z,100.0
2017-12-26T02:55:09.736Z,100.0
2017-12-26T02:56:11.416Z,100.0
2017-12-26T02:57:13.104Z,100.0
2017-12-26T02:58:14.844Z,100.0
2017-12-26T02:59:16.518Z,100.0
2017-12-26T03:00:18.261Z,100.0
2017-12-26T03:01:19.906Z,100.0
2017-12-26T03:02:21.640Z,100.0
2017-12-26T03:03:23.303Z,100.0
2017-12-26T03:04:24.983Z,100.0
2017-12-26T03:05:26.744Z,100.0
2017-12-26T03:06:28.455Z,100.0
2017-12-26T03:07:30.101Z,100.0
2017-12-26T03:08:31.858Z,100.0
2017-12-26T03:09:34.060Z,100.0
2017-12-26T03:10:36.433Z,100.0
2017-12-26T03:11:38.055Z,100.0
2017-12-26T03:12:39.788Z,100.0
2017-12-26T03:13:41.466Z,100.0
2017-12-26T03:14:43.140Z,100.0
2017-12-26T03:15:44.780Z,100.0
2017-12-26T03:16:46.467Z,100.0
2017-12-26T03:17:48.158Z,100.0
2017-12-26T03:18:49.870Z,100.0
2017-12-26T03:19:51.504Z,100.0
2017-12-26T03:20:53.215Z,100.0
2017-12-26T03:21:54.898Z,100.0
2017-12-26T03:22:56.555Z,100.0
2017-12-26T03:23:58.242Z,100.0
2017-12-26T03:24:59.904Z,100.0
2017-12-26T03:26:01.624Z,100.0
2017-12-26T03:27:03.333Z,100.0
2017-12-26T03:28:05.442Z,100.0
2017-12-26T03:29:07.252Z,100.0
2017-12-26T03:30:09.134Z,100.0
2017-12-26T03:31:10.793Z,100.0
2017-12-26T03:32:12.419Z,100.0
2017-12-26T03:33:14.060Z,100.0
2017-12-26T03:34:15.806Z,100.0
2017-12-26T03:35:17.444Z,100.0
2017-12-26T03:36:19.159Z,100.0
2017-12-26T03:37:20.862Z,100.0
2017-12-26T03:38:22.612Z,100.0
2017-12-26T03:39:24.276Z,100.0
2017-12-26T03:40:25.988Z,100.0
2017-12-26T03:41:27.640Z,100.0
2017-12-26T03:42:29.280Z,100.0
2017-12-26T03:43:30.942Z,100.0
2017-12-26T03:44:32.644Z,100.0
2017-12-26T03:45:34.296Z,100.0
2017-12-26T03:46:35.942Z,100.0
2017-12-26T03:47:37.640Z,100.0
2017-12-26T03:48:39.351Z,100.0
2017-12-26T03:49:41.060Z,99.2
2017-12-26T03:50:42.702Z,99.4
2017-12-26T03:51:44.397Z,99.6
2017-12-26T03:52:46.061Z,99.6
2017-12-26T03:53:47.781Z,99.1
2017-12-26T03:54:49.446Z,99.6
2017-12-26T03:55:51.091Z,100.0
2017-12-26T03:56:52.784Z,99.4
2017-12-26T03:57:55.010Z,99.3
2017-12-26T03:58:56.649Z,99.1
2017-12-26T03:59:58.337Z,99.2
2017-12-26T04:00:59.957Z,98.9
2017-12-26T04:02:01.695Z,99.6
2017-12-26T04:03:03.390Z,99.1
2017-12-26T04:04:05.077Z,98.6
2017-12-26T04:05:06.751Z,98.7
2017-12-26T04:06:08.419Z,98.7
2017-12-26T04:07:10.203Z,98.5
2017-12-26T04:08:11.892Z,98.5
2017-12-26T04:09:13.614Z,98.5
2017-12-26T04:10:15.246Z,98.5
2017-12-26T04:11:16.977Z,98.5
2017-12-26T04:12:18.653Z,98.9
2017-12-26T04:13:20.365Z,98.7
2017-12-26T04:14:22.051Z,98.6
2017-12-26T04:15:23.724Z,98.2
2017-12-26T04:16:25.385Z,97.9
2017-12-26T04:17:27.034Z,97.8
2017-12-26T04:18:28.738Z,98.2
2017-12-26T04:19:30.464Z,98.3
2017-12-26T04:20:32.154Z,98.0
2017-12-26T04:21:33.845Z,97.8
2017-12-26T04:22:35.548Z,98.1
2017-12-26T04:23:37.291Z,98.2
2017-12-26T04:24:38.994Z,98.1
2017-12-26T04:25:40.745Z,98.2
2017-12-26T04:26:42.415Z,97.6
2017-12-26T04:27:44.066Z,97.9
2017-12-26T04:28:45.763Z,98.2
2017-12-26T04:29:47.492Z,98.0
2017-12-26T04:30:49.162Z,98.3
2017-12-26T04:31:50.857Z,98.3
2017-12-26T04:32:52.608Z,97.9
2017-12-26T04:33:54.279Z,97.6
2017-12-26T04:34:55.961Z,98.2
2017-12-26T04:35:57.648Z,98.0
2017-12-26T04:36:59.336Z,98.2
2017-12-26T04:38:01.033Z,97.9
2017-12-26T04:39:02.698Z,97.9
2017-12-26T04:40:04.427Z,97.9
2017-12-26T04:41:06.127Z,97.5
2017-12-26T04:42:07.842Z,97.9
2017-12-26T04:43:09.591Z,97.9
2017-12-26T04:44:11.254Z,97.8
2017-12-26T04:45:12.974Z,98.2
2017-12-26T04:46:14.698Z,97.8
2017-12-26T04:47:16.371Z,98.0
2017-12-26T04:48:18.089Z,97.8
2017-12-26T04:49:19.775Z,98.2
2017-12-26T04:50:21.506Z,97.5
2017-12-26T04:51:23.208Z,97.9
2017-12-26T04:52:24.909Z,97.8
2017-12-26T04:53:26.613Z,98.1
2017-12-26T04:54:28.355Z,97.9
2017-12-26T04:55:30.175Z,97.9
2017-12-26T04:56:31.781Z,97.9
2017-12-26T04:57:33.495Z,98.3
2017-12-26T04:58:35.188Z,97.8
2017-12-26T04:59:36.884Z,98.2
2017-12-26T05:00:38.647Z,97.5
2017-12-26T05:01:40.322Z,97.9
2017-12-26T05:02:42.470Z,98.2
2017-12-26T05:03:44.149Z,97.5
2017-12-26T05:04:45.963Z,97.7
2017-12-26T05:05:47.680Z,98.1
2017-12-26T05:06:49.384Z,97.9
2017-12-26T05:07:51.156Z,97.3
2017-12-26T05:08:52.831Z,97.8
2017-12-26T05:09:54.576Z,97.3
2017-12-26T05:10:56.208Z,97.7
2017-12-26T05:11:57.932Z,97.1
2017-12-26T05:12:59.616Z,97.0
2017-12-26T05:14:01.302Z,97.2
2017-12-26T05:15:02.965Z,96.8
2017-12-26T05:16:04.662Z,96.8
2017-12-26T05:17:06.291Z,96.2
2017-12-26T05:18:07.977Z,96.5
2017-12-26T05:19:09.630Z,96.8
2017-12-26T05:20:11.287Z,96.4
2017-12-26T05:21:13.006Z,96.7
2017-12-26T05:22:14.812Z,96.3
2017-12-26T05:23:16.505Z,96.2
2017-12-26T05:24:18.201Z,95.9
2017-12-26T05:25:19.909Z,96.0
2017-12-26T05:26:21.623Z,95.8
2017-12-26T05:27:23.305Z,96.3
2017-12-26T05:28:25.019Z,96.2
2017-12-26T05:29:26.794Z,95.6
2017-12-26T05:30:28.462Z,95.7
2017-12-26T05:31:30.126Z,95.6
2017-12-26T05:32:31.815Z,95.9
2017-12-26T05:33:33.895Z,95.8
2017-12-26T05:34:35.588Z,95.4
2017-12-26T05:35:37.292Z,95.4
2017-12-26T05:36:39.051Z,95.9
2017-12-26T05:37:40.731Z,95.9
2017-12-26T05:38:42.418Z,95.4
2017-12-26T05:39:44.144Z,95.6
2017-12-26T05:40:45.880Z,94.9
2017-12-26T05:41:47.562Z,95.0
2017-12-26T05:42:49.277Z,94.9
2017-12-26T05:43:50.986Z,95.2
2017-12-26T05:44:52.641Z,95.0
2017-12-26T05:45:54.346Z,94.6
2017-12-26T05:46:56.027Z,94.9
2017-12-26T05:47:57.726Z,94.7
2017-12-26T05:48:59.432Z,94.5
2017-12-26T05:50:01.158Z,94.4
2017-12-26T05:51:02.903Z,95.0
2017-12-26T05:52:04.567Z,95.4
2017-12-26T05:53:06.253Z,95.7
2017-12-26T05:54:07.922Z,95.2
2017-12-26T05:55:09.616Z,94.9
2017-12-26T05:56:11.261Z,95.7
2017-12-26T05:57:12.901Z,97.2
2017-12-26T05:58:14.709Z,98.2
2017-12-26T05:59:16.421Z,98.8
2017-12-26T06:00:18.100Z,98.6
2017-12-26T06:01:19.743Z,98.8
2017-12-26T06:02:21.471Z,98.8
2017-12-26T06:03:23.147Z,99.1
2017-12-26T06:04:24.775Z,100.0
2017-12-26T06:05:26.537Z,99.7
2017-12-26T06:06:28.217Z,99.9
2017-12-26T06:07:29.870Z,99.5
2017-12-26T06:08:31.553Z,100.0
2017-12-26T06:09:33.219Z,99.3
2017-12-26T06:10:34.876Z,100.0
2017-12-26T06:11:36.595Z,100.0
2017-12-26T06:12:38.227Z,100.0
2017-12-26T06:13:40.028Z,100.0
2017-12-26T06:14:41.686Z,100.0
2017-12-26T06:15:43.374Z,100.0
2017-12-26T06:16:45.332Z,100.0
2017-12-26T06:17:47.061Z,100.0
2017-12-26T06:18:48.769Z,100.0
2017-12-26T06:19:50.426Z,100.0
2017-12-26T06:20:52.099Z,100.0
2017-12-26T06:21:53.794Z,100.0
2017-12-26T06:22:55.489Z,100.0
2017-12-26T06:23:57.254Z,100.0
2017-12-26T06:24:58.989Z,100.0
2017-12-26T06:26:00.721Z,100.0
2017-12-26T06:27:02.547Z,100.0
2017-12-26T06:28:04.345Z,100.0
2017-12-26T06:29:06.080Z,100.0
2017-12-26T06:30:07.778Z,100.0
2017-12-26T06:31:09.528Z,100.0
2017-12-26T06:32:11.224Z,100.0
2017-12-26T06:33:12.932Z,100.0
2017-12-26T06:34:14.713Z,100.0
2017-12-26T06:35:16.614Z,100.0
2017-12-26T06:36:18.355Z,100.0
2017-12-26T06:37:20.112Z,100.0
2017-12-26T06:38:21.811Z,100.0
2017-12-26T06:39:23.545Z,100.0
2017-12-26T06:40:25.425Z,100.0
2017-12-26T06:41:27.142Z,100.0
2017-12-26T06:42:28.854Z,100.0
2017-12-26T06:43:31.493Z,100.0
2017-12-26T06:44:33.305Z,100.0
2017-12-26T06:45:35.080Z,100.0
2017-12-26T06:46:36.842Z,100.0
2017-12-26T06:47:38.561Z,100.0
2017-12-26T06:48:40.254Z,100.0
2017-12-26T06:49:42.119Z,100.0
2017-12-26T06:50:43.925Z,100.0
2017-12-26T06:51:45.679Z,100.0
2017-12-26T06:52:47.414Z,100.0
2017-12-26T06:53:49.626Z,100.0
2017-12-26T06:54:51.555Z,100.0
2017-12-26T06:55:53.342Z,100.0
2017-12-26T06:56:55.436Z,100.0
2017-12-26T06:57:57.329Z,100.0
2017-12-26T06:58:59.598Z,100.0
2017-12-26T07:00:02.116Z,100.0
2017-12-26T07:01:04.810Z,100.0
2017-12-26T07:02:06.790Z,100.0
2017-12-26T07:03:08.640Z,100.0
2017-12-26T07:04:10.538Z,100.0
2017-12-26T07:05:13.179Z,100.0
2017-12-26T07:06:15.045Z,100.0
2017-12-26T07:07:17.572Z,100.0
2017-12-26T07:08:19.913Z,100.0
2017-12-26T07:09:22.139Z,100.0
2017-12-26T07:10:24.916Z,100.0
2017-12-26T07:12:36.440Z,100.0
2017-12-26T07:13:38.052Z,100.0
2017-12-26T07:14:40.419Z,100.0
2017-12-26T07:15:42.033Z,100.0
2017-12-26T07:16:44.539Z,100.0
2017-12-26T07:17:46.264Z,100.0
2017-12-26T07:18:47.882Z,100.0
2017-12-26T07:19:50.450Z,100.0
2017-12-26T07:20:52.069Z,100.0
2017-12-26T07:21:54.021Z,100.0
2017-12-26T07:22:55.661Z,100.0
2017-12-26T07:23:57.389Z,100.0
2017-12-26T07:24:59.581Z,100.0
2017-12-26T07:26:01.187Z,100.0
2017-12-26T07:27:02.834Z,100.0
2017-12-26T07:28:04.454Z,100.0
2017-12-26T07:29:06.919Z,100.0
2017-12-26T07:30:08.577Z,100.0
2017-12-26T07:31:10.495Z,100.0
2017-12-26T07:32:12.077Z,100.0
2017-12-26T07:33:14.499Z,100.0
2017-12-26T07:34:16.155Z,100.0
2017-12-26T07:35:17.771Z,100.0
2017-12-26T07:36:19.409Z,100.0
2017-12-26T07:37:21.028Z,100.0
2017-12-26T07:38:33.910Z,100.0
2017-12-26T07:39:35.526Z,100.0
2017-12-26T07:40:37.145Z,100.0
2017-12-26T07:41:38.789Z,100.0
2017-12-26T07:42:40.985Z,100.0
2017-12-26T07:43:43.428Z,100.0
2017-12-26T07:44:45.206Z,100.0
2017-12-26T07:45:47.488Z,100.0
2017-12-26T07:46:49.987Z,100.0
2017-12-26T07:47:51.561Z,100.0
2017-12-26T07:48:53.958Z,100.0
2017-12-26T07:49:55.600Z,100.0
2017-12-26T07:51:00.179Z,100.0
2017-12-26T07:52:02.756Z,100.0
2017-12-26T07:53:04.364Z,100.0
2017-12-26T07:54:06.000Z,100.0
2017-12-26T07:55:07.661Z,100.0
2017-12-26T07:56:09.343Z,100.0
2017-12-26T07:57:11.159Z,100.0
2017-12-26T07:58:13.191Z,100.0
2017-12-26T07:59:14.996Z,100.0
2017-12-26T08:00:16.630Z,100.0
2017-12-26T08:01:18.318Z,100.0
2017-12-26T08:02:19.950Z,100.0
2017-12-26T08:03:21.767Z,100.0
2017-12-26T08:04:23.927Z,100.0
2017-12-26T08:05:26.114Z,100.0
2017-12-26T08:06:28.227Z,100.0
2017-12-26T08:07:32.542Z,100.0
2017-12-26T08:08:34.538Z,100.0
2017-12-26T08:09:36.166Z,100.0
2017-12-26T08:10:40.712Z,100.0
2017-12-26T08:11:42.386Z,100.0
2017-12-26T08:12:44.967Z,100.0
2017-12-26T08:13:48.191Z,100.0
2017-12-26T08:14:50.124Z,100.0
2017-12-26T08:15:52.108Z,100.0
2017-12-26T08:16:54.148Z,100.0
2017-12-26T08:17:55.858Z,100.0
2017-12-26T08:18:57.525Z,100.0
2017-12-26T08:19:59.193Z,100.0
2017-12-26T08:21:00.927Z,100.0
2017-12-26T08:22:02.679Z,100.0
2017-12-26T08:23:04.337Z,100.0
2017-12-26T08:24:06.006Z,100.0
2017-12-26T08:25:07.717Z,100.0
2017-12-26T08:26:09.379Z,100.0
2017-12-26T08:27:11.085Z,100.0
2017-12-26T08:28:12.773Z,100.0
2017-12-26T08:29:15.029Z,100.0
2017-12-26T08:30:16.795Z,100.0
2017-12-26T08:31:19.085Z,100.0
2017-12-26T08:32:21.654Z,100.0
2017-12-26T08:33:23.319Z,100.0
2017-12-26T08:34:25.106Z,100.0
2017-12-26T08:35:26.779Z,100.0
2017-12-26T08:36:28.404Z,100.0
2017-12-26T08:37:30.083Z,100.0
2017-12-26T08:38:31.837Z,100.0
2017-12-26T08:39:33.879Z,100.0
2017-12-26T08:40:35.868Z,100.0
2017-12-26T08:41:37.906Z,100.0
2017-12-26T08:42:39.606Z,100.0
2017-12-26T08:43:43.958Z,100.0
2017-12-26T08:44:46.446Z,100.0
2017-12-26T08:45:49.225Z,100.0
2017-12-26T08:46:51.772Z,100.0
2017-12-26T08:47:53.692Z,100.0
2017-12-26T08:48:55.646Z,100.0
2017-12-26T08:49:57.596Z,100.0
2017-12-26T08:51:00.400Z,100.0
2017-12-26T08:52:02.162Z,100.0
2017-12-26T08:53:04.013Z,100.0
2017-12-26T08:54:06.189Z,100.0
2017-12-26T08:55:08.817Z,100.0
2017-12-26T08:56:10.482Z,100.0
2017-12-26T08:57:12.134Z,100.0
2017-12-26T08:58:13.757Z,100.0
2017-12-26T08:59:15.685Z,100.0
2017-12-26T09:00:17.660Z,100.0
2017-12-26T09:01:20.233Z,100.0
2017-12-26T09:02:22.025Z,100.0
2017-12-26T09:03:24.149Z,100.0
2017-12-26T09:04:26.116Z,100.0
2017-12-26T09:05:28.192Z,100.0
2017-12-26T09:06:30.273Z,100.0
2017-12-26T09:07:32.196Z,100.0
2017-12-26T09:08:34.620Z,100.0
2017-12-26T09:09:36.238Z,100.0
2017-12-26T09:10:37.863Z,100.0
2017-12-26T09:11:39.512Z,100.0
2017-12-26T09:12:42.204Z,100.0
2017-12-26T09:13:44.089Z,100.0
2017-12-26T09:14:47.816Z,100.0
2017-12-26T09:15:50.230Z,100.0
2017-12-26T09:16:52.268Z,100.0
2017-12-26T09:17:54.249Z,100.0
2017-12-26T09:18:55.950Z,100.0
2017-12-26T09:19:57.672Z,100.0
2017-12-26T09:20:59.719Z,100.0
2017-12-26T09:22:01.373Z,100.0
2017-12-26T09:23:03.276Z,100.0
2017-12-26T09:26:33.216Z,100.0
2017-12-26T09:27:34.833Z,100.0
2017-12-26T09:28:36.444Z,100.0
2017-12-26T09:29:38.069Z,100.0
2017-12-26T09:30:39.680Z,100.0
2017-12-26T09:31:41.291Z,100.0
2017-12-26T09:32:42.912Z,100.0
2017-12-26T09:33:44.526Z,100.0
2017-12-26T09:34:46.152Z,100.0
2017-12-26T09:35:47.896Z,100.0
2017-12-26T09:36:49.822Z,100.0
2017-12-26T09:37:51.594Z,100.0
2017-12-26T09:38:53.341Z,100.0
2017-12-26T09:39:55.100Z,100.0
2017-12-26T09:40:56.811Z,100.0
2017-12-26T09:41:58.653Z,100.0
2017-12-26T09:43:00.379Z,100.0
2017-12-26T09:44:02.083Z,100.0
2017-12-26T09:45:04.605Z,100.0
2017-12-26T09:46:06.309Z,100.0
2017-12-26T09:47:08.116Z,100.0
2017-12-26T09:48:09.832Z,100.0
2017-12-26T09:50:21.551Z,100.0
2017-12-26T09:51:24.181Z,100.0
2017-12-26T09:52:25.787Z,100.0
2017-12-26T09:53:27.403Z,100.0
2017-12-26T09:54:29.982Z,100.0
2017-12-26T09:55:32.050Z,100.0
2017-12-26T09:56:34.864Z,100.0
2017-12-26T09:57:36.969Z,100.0
2017-12-26T09:58:38.947Z,100.0
2017-12-26T09:59:40.996Z,100.0
2017-12-26T10:00:42.989Z,100.0
2017-12-26T10:01:45.008Z,100.0
2017-12-26T10:02:47.245Z,100.0
2017-12-26T10:03:49.167Z,100.0
2017-12-26T10:04:51.281Z,100.0
2017-12-26T10:05:53.284Z,100.0
2017-12-26T10:06:55.307Z,100.0
2017-12-26T10:07:57.252Z,100.0
2017-12-26T10:08:59.319Z,100.0
2017-12-26T10:10:01.345Z,100.0
2017-12-26T10:11:03.278Z,100.0
2017-12-26T10:12:05.244Z,100.0
2017-12-26T10:13:07.244Z,100.0
2017-12-26T10:14:09.344Z,100.0
2017-12-26T10:15:11.376Z,100.0
2017-12-26T10:16:13.386Z,100.0
2017-12-26T10:17:15.463Z,100.0
2017-12-26T10:18:17.539Z,100.0
2017-12-26T10:19:19.577Z,100.0
2017-12-26T10:20:22.304Z,100.0
2017-12-26T10:23:45.201Z,100.0
2017-12-26T10:24:47.365Z,100.0
2017-12-26T10:25:49.020Z,100.0
2017-12-26T10:26:50.841Z,100.0
2017-12-26T10:27:53.539Z,100.0
2017-12-26T10:28:55.440Z,100.0
2017-12-26T10:29:57.117Z,100.0
2017-12-26T10:30:58.797Z,100.0
2017-12-26T10:32:00.661Z,100.0
2017-12-26T10:33:02.663Z,100.0
2017-12-26T10:34:04.712Z,100.0
2017-12-26T10:35:06.792Z,100.0
2017-12-26T10:36:08.757Z,100.0
2017-12-26T10:37:11.662Z,100.0
2017-12-26T10:38:13.701Z,100.0
2017-12-26T10:39:15.692Z,100.0
2017-12-26T10:40:17.797Z,100.0
2017-12-26T10:41:19.449Z,100.0
2017-12-26T10:42:22.162Z,100.0
2017-12-26T10:43:24.176Z,100.0
2017-12-26T10:44:26.268Z,100.0
2017-12-26T10:45:27.912Z,100.0
2017-12-26T10:46:32.482Z,100.0
2017-12-26T10:47:34.312Z,100.0
2017-12-26T10:48:36.312Z,100.0
2017-12-26T10:49:38.437Z,100.0
2017-12-26T10:50:40.369Z,100.0
2017-12-26T10:51:42.532Z,100.0
2017-12-26T10:52:44.574Z,100.0
2017-12-26T10:53:46.683Z,100.0
2017-12-26T10:54:48.868Z,100.0
2017-12-26T10:55:50.627Z,100.0
2017-12-26T10:56:52.274Z,100.0
2017-12-26T11:00:13.821Z,100.0
2017-12-26T11:01:15.607Z,100.0
2017-12-26T11:02:17.401Z,100.0
2017-12-26T11:03:19.199Z,100.0
2017-12-26T11:04:20.806Z,100.0
2017-12-26T11:05:22.423Z,100.0
2017-12-26T11:06:24.035Z,100.0
2017-12-26T11:07:25.665Z,100.0
2017-12-26T11:08:27.293Z,100.0
2017-12-26T11:09:29.011Z,100.0
2017-12-26T11:10:30.708Z,100.0
2017-12-26T11:11:32.793Z,100.0
2017-12-26T11:12:34.553Z,100.0
2017-12-26T11:13:37.678Z,100.0
2017-12-26T11:14:39.300Z,100.0
2017-12-26T11:15:41.053Z,100.0
2017-12-26T11:16:43.027Z,100.0
2017-12-26T11:17:44.724Z,100.0
2017-12-26T11:18:46.501Z,100.0
2017-12-26T11:19:48.346Z,100.0
2017-12-26T11:20:51.398Z,100.0
2017-12-26T11:21:53.207Z,100.0
2017-12-26T11:22:55.178Z,100.0
2017-12-26T11:23:57.400Z,100.0
2017-12-26T11:24:59.351Z,100.0
2017-12-26T11:26:01.160Z,100.0
2017-12-26T11:27:02.909Z,100.0
2017-12-26T11:28:04.637Z,100.0
2017-12-26T11:29:06.636Z,100.0
2017-12-26T11:30:08.866Z,100.0
2017-12-26T11:31:10.949Z,100.0
2017-12-26T11:32:13.082Z,100.0
2017-12-26T11:33:15.186Z,100.0
2017-12-26T11:34:17.928Z,100.0
2017-12-26T11:35:19.777Z,100.0
2017-12-26T11:36:22.103Z,100.0
2017-12-26T11:37:23.783Z,100.0
2017-12-26T11:38:26.042Z,100.0
2017-12-26T11:39:28.634Z,100.0
2017-12-26T11:40:30.796Z,100.0
2017-12-26T11:41:32.549Z,100.0
2017-12-26T11:42:34.316Z,100.0
2017-12-26T11:43:35.965Z,100.0
2017-12-26T11:44:38.043Z,100.0
2017-12-26T11:45:40.420Z,100.0
2017-12-26T11:46:42.491Z,100.0
2017-12-26T11:47:44.407Z,100.0
2017-12-26T11:48:47.115Z,100.0
2017-12-26T11:49:49.845Z,100.0
2017-12-26T11:50:51.945Z,100.0
2017-12-26T11:51:54.115Z,100.0
2017-12-26T11:52:57.624Z,100.0
2017-12-26T11:54:00.197Z,100.0
2017-12-26T11:55:02.105Z,100.0
2017-12-26T11:56:05.499Z,100.0
2017-12-26T11:57:07.720Z,100.0
2017-12-26T11:58:10.245Z,100.0
2017-12-26T11:59:13.422Z,100.0
2017-12-26T12:00:15.840Z,100.0
2017-12-26T12:01:17.778Z,100.0
2017-12-26T12:02:20.658Z,100.0
2017-12-26T12:03:22.884Z,100.0
2017-12-26T12:04:25.222Z,100.0
2017-12-26T12:05:28.160Z,100.0
2017-12-26T12:06:31.200Z,98.5
2017-12-26T12:07:33.806Z,98.5
2017-12-26T12:08:35.254Z,98.8
2017-12-26T12:09:36.998Z,97.9
2017-12-26T12:10:38.832Z,97.4
2017-12-26T12:11:40.689Z,97.0
2017-12-26T12:12:42.667Z,97.0
2017-12-26T12:13:45.122Z,96.7
2017-12-26T12:14:46.940Z,96.3
2017-12-26T12:15:48.722Z,97.6
2017-12-26T12:16:50.682Z,96.9
2017-12-26T12:17:52.531Z,96.3
2017-12-26T12:18:54.481Z,95.8
2017-12-26T12:19:56.533Z,95.9
2017-12-26T12:20:58.505Z,96.4
2017-12-26T12:22:01.116Z,96.0
2017-12-26T12:23:03.262Z,96.3
2017-12-26T12:24:05.697Z,95.8
2017-12-26T12:25:07.419Z,95.9
2017-12-26T12:26:09.218Z,96.3
2017-12-26T12:27:11.054Z,96.4
2017-12-26T12:28:12.805Z,97.5
2017-12-26T12:29:14.508Z,96.7
2017-12-26T12:30:16.710Z,95.6
2017-12-26T12:31:19.043Z,96.3
2017-12-26T12:32:20.734Z,96.4
2017-12-26T12:33:22.392Z,96.2
2017-12-26T12:34:24.075Z,96.4
2017-12-26T12:35:25.783Z,95.5
2017-12-26T12:36:27.729Z,96.2
2017-12-26T12:37:29.462Z,95.6
2017-12-26T12:38:31.166Z,95.7
2017-12-26T12:39:33.117Z,96.5
2017-12-26T12:40:34.882Z,96.7
2017-12-26T12:41:36.656Z,95.7
2017-12-26T12:42:38.403Z,96.0
2017-12-26T12:43:40.147Z,95.6
2017-12-26T12:44:41.844Z,95.5
2017-12-26T12:45:43.615Z,95.3
2017-12-26T12:46:45.434Z,95.7
2017-12-26T12:47:47.565Z,95.2
2017-12-26T12:48:49.461Z,95.6
2017-12-26T12:49:51.518Z,95.0
2017-12-26T12:50:53.621Z,95.8
2017-12-26T12:51:55.496Z,96.0
2017-12-26T12:52:57.106Z,95.7
2017-12-26T12:53:58.856Z,95.5
2017-12-26T12:55:01.103Z,94.4
2017-12-26T12:56:02.714Z,94.4
2017-12-26T12:57:04.499Z,94.2
2017-12-26T12:58:06.543Z,94.6
2017-12-26T12:59:08.290Z,94.3
2017-12-26T13:00:10.044Z,94.3
2017-12-26T13:01:12.523Z,94.0
2017-12-26T13:02:15.014Z,94.3
2017-12-26T13:03:16.725Z,95.0
2017-12-26T13:04:18.708Z,96.0
2017-12-26T13:05:20.480Z,95.8
2017-12-26T13:06:22.198Z,95.9
2017-12-26T13:07:24.298Z,96.2
2017-12-26T13:08:26.036Z,96.3
2017-12-26T13:09:28.401Z,96.7
2017-12-26T13:10:30.284Z,96.0
2017-12-26T13:11:32.329Z,96.2
2017-12-26T13:12:33.988Z,96.8
2017-12-26T13:13:35.782Z,96.8
2017-12-26T13:14:37.389Z,95.9
2017-12-26T13:15:39.083Z,96.2
2017-12-26T13:16:41.603Z,95.8
2017-12-26T13:17:44.122Z,95.3
2017-12-26T13:18:45.975Z,95.4
2017-12-26T13:19:48.414Z,94.9
2017-12-26T13:20:50.121Z,94.9
2017-12-26T13:21:51.950Z,95.8
2017-12-26T13:22:53.991Z,95.6
2017-12-26T13:23:55.641Z,95.8
2017-12-26T13:24:57.510Z,95.0
2017-12-26T13:25:59.219Z,94.9
2017-12-26T13:27:00.926Z,95.1
2017-12-26T13:28:03.514Z,96.2
2017-12-26T13:29:05.255Z,95.5
2017-12-26T13:30:07.020Z,95.4
2017-12-26T13:31:08.941Z,94.8
2017-12-26T13:32:10.656Z,95.4
2017-12-26T13:33:12.390Z,95.8